Terminal Aerodrome Forecast
Issued by NWS Cleveland, OH

Home | Current Version | Previous Version | Graphics & Text | Print | Product List | Glossary Off
Versions: 1 2 3 4 5 6 7 8 9 10 11 12 13 14 15

000
FTUS41 KCLE 250908 AAA
TAFCAK
TAF AMD
KCAK 250908Z 2509/2606 12010KT P6SM VCSH SCT035 OVC070
      TEMPO 2510/2513 5SM -SHRA SCT025 OVC035
     FM251800 13012KT P6SM BKN040
     FM260200 12008KT P6SM SCT040 BKN150=

USA.gov is the U.S. government's official web portal to all federal, state and local government web resources and services.